Time;durP1;ratioP1;P1;durP2;ratioP2;P2;SDS_P1;SDS_P2;PMS_P1;PMS_P2;Temp;Humidity;BMP_temperature;BMP_pressure;BME280_temperature;BME280_humidity;BME280_pressure;Samples;Min_cycle;Max_cycle;Signal;HPM_P1;HPM_P2
2024/01/08 00:00:17;;;;;;;1.00;0.90;;;;;;;0.07;78.30;101212.38;5026173;28;20046;-73
2024/01/08 00:02:48;;;;;;;1.30;1.15;;;;;;;0.06;79.11;101208.91;5027764;28;20060;-72
2024/01/08 00:05:32;;;;;;;2.03;0.95;;;;;;;-0.03;80.57;101196.69;5023690;28;20048;-72
2024/01/08 00:08:11;;;;;;;1.10;0.90;;;;;;;0.02;80.05;101201.91;5018499;28;20092;-73
2024/01/08 00:10:40;;;;;;;1.35;1.02;;;;;;;0.06;81.14;101219.31;5040139;28;20042;-73
2024/01/08 00:13:08;;;;;;;1.55;1.10;;;;;;;0.15;80.03;101218.56;5022565;28;20048;-72
2024/01/08 00:15:37;;;;;;;2.30;1.10;;;;;;;-0.08;80.41;101189.69;4992854;28;20053;-72
2024/01/08 00:18:06;;;;;;;2.10;1.05;;;;;;;0.00;80.63;101211.47;5021819;28;20795;-72
2024/01/08 00:21:02;;;;;;;1.58;0.90;;;;;;;-0.04;82.07;101223.59;5023906;28;20160;-74
2024/01/08 00:23:33;;;;;;;1.85;1.08;;;;;;;-0.05;81.67;101219.25;5023415;28;20044;-72
2024/01/08 00:26:09;;;;;;;2.65;1.10;;;;;;;0.06;81.14;101215.84;5034332;28;20062;-72
2024/01/08 00:28:39;;;;;;;1.90;1.10;;;;;;;-0.02;80.87;101198.44;5018878;28;20770;-73
2024/01/08 00:31:07;;;;;;;1.38;1.00;;;;;;;0.02;81.55;101211.47;5019556;28;20087;-72
2024/01/08 00:33:35;;;;;;;2.13;1.30;;;;;;;-0.02;82.04;101215.78;5020257;28;20112;-70
2024/01/08 00:36:06;;;;;;;3.35;1.00;;;;;;;-0.04;83.52;101214.91;5034368;28;20125;-69
2024/01/08 00:38:35;;;;;;;1.27;1.17;;;;;;;0.01;82.59;101223.59;5019163;28;20049;-71
2024/01/08 00:41:06;;;;;;;1.95;1.20;;;;;;;-0.01;82.81;101218.41;5036408;28;20104;-72
2024/01/08 00:43:34;;;;;;;2.05;1.20;;;;;;;-0.01;82.95;101209.72;5034312;28;20053;-72
2024/01/08 00:46:04;;;;;;;1.95;1.60;;;;;;;-0.04;85.00;101217.50;5037778;28;20581;-70
2024/01/08 00:48:32;;;;;;;1.80;1.30;;;;;;;-0.01;84.46;101205.41;5000170;28;20159;-71
2024/01/08 00:51:00;;;;;;;1.20;1.10;;;;;;;0.00;85.20;101211.47;5024780;28;20338;-71
2024/01/08 00:53:30;;;;;;;2.55;1.00;;;;;;;-0.01;84.63;101210.59;5020257;28;20056;-71
2024/01/08 00:56:00;;;;;;;1.60;1.20;;;;;;;-0.04;84.65;101191.47;5036087;28;20050;-70
2024/01/08 00:58:30;;;;;;;1.58;1.10;;;;;;;-0.05;84.71;101207.94;5013147;28;20042;-70
2024/01/08 01:00:59;;;;;;;1.60;1.00;;;;;;;-0.05;85.18;101202.75;5038470;28;20091;-72
2024/01/08 01:03:30;;;;;;;2.25;1.40;;;;;;;-0.06;85.40;101207.09;5003909;28;20519;-72
2024/01/08 01:05:59;;;;;;;2.85;1.10;;;;;;;-0.12;83.93;101198.31;5036013;28;20053;-72
2024/01/08 01:08:28;;;;;;;2.13;1.20;;;;;;;-0.10;83.32;101205.31;5031235;28;20056;-71
2024/01/08 01:10:56;;;;;;;2.00;1.30;;;;;;;0.00;83.14;101211.47;5023897;28;20045;-72
2024/01/08 01:13:27;;;;;;;1.60;1.13;;;;;;;-0.04;82.95;101213.19;5027088;28;20049;-70
2024/01/08 01:15:57;;;;;;;2.33;1.42;;;;;;;-0.14;83.31;101208.72;5023165;28;20101;-71
2024/01/08 01:18:25;;;;;;;1.42;1.08;;;;;;;-0.06;82.50;101208.81;5020691;28;20057;-70
2024/01/08 01:20:53;;;;;;;1.40;1.30;;;;;;;-0.13;84.43;101220.00;5022230;28;20047;-71
2024/01/08 01:23:21;;;;;;;2.03;1.60;;;;;;;-0.13;85.39;101228.69;5000654;28;20052;-71
2024/01/08 01:25:50;;;;;;;2.25;1.33;;;;;;;-0.10;84.81;101225.25;5034021;28;20472;-71
2024/01/08 01:28:19;;;;;;;1.40;1.15;;;;;;;-0.13;85.68;101227.81;5028357;28;20053;-71
2024/01/08 01:30:49;;;;;;;1.10;1.00;;;;;;;-0.14;86.23;101228.66;5037826;28;20057;-70
2024/01/08 01:33:18;;;;;;;4.07;1.60;;;;;;;-0.13;86.09;101233.03;5021229;28;20049;-71
2024/01/08 01:35:46;;;;;;;1.63;1.20;;;;;;;-0.19;86.12;101218.25;5032393;28;20049;-72
2024/01/08 01:38:15;;;;;;;2.80;1.30;;;;;;;-0.17;84.64;101219.13;5017077;28;20053;-72
2024/01/08 01:40:46;;;;;;;1.30;1.15;;;;;;;-0.14;84.95;101231.28;5006468;28;20045;-73
2024/01/08 01:43:21;;;;;;;1.50;1.17;;;;;;;-0.13;83.35;101225.22;5020998;28;20045;-72
2024/01/08 01:45:53;;;;;;;1.67;1.17;;;;;;;-0.12;83.26;101237.38;5035401;28;20049;-72
2024/01/08 01:48:22;;;;;;;1.88;1.25;;;;;;;-0.11;83.35;101228.72;5033614;28;20049;-71
2024/01/08 01:50:52;;;;;;;3.05;1.52;;;;;;;-0.16;85.41;101226.06;5018195;28;20061;-72
2024/01/08 01:53:21;;;;;;;2.58;1.65;;;;;;;-0.06;88.23;101234.84;5010253;28;20037;-71
2024/01/08 01:55:52;;;;;;;3.53;2.10;;;;;;;-0.05;92.58;101232.25;5039748;28;20053;-72
2024/01/08 01:58:24;;;;;;;2.53;2.10;;;;;;;-0.07;94.68;101228.75;5018386;28;20160;-71
2024/01/08 02:00:55;;;;;;;4.40;2.40;;;;;;;-0.10;96.83;101226.13;5038855;28;20056;-71
2024/01/08 02:03:23;;;;;;;2.95;2.40;;;;;;;-0.14;97.86;101232.16;5023329;28;20057;-72
2024/01/08 02:05:52;;;;;;;2.92;2.50;;;;;;;-0.17;98.56;101232.16;5005023;28;20049;-71
2024/01/08 02:08:22;;;;;;;2.30;2.10;;;;;;;-0.19;99.74;101219.97;5018019;28;20064;-71
2024/01/08 02:10:52;;;;;;;;;;;;;;;-0.17;100.00;101226.06;5024841;28;20096;-71
2024/01/08 02:13:23;;;;;;;4.03;2.38;;;;;;;-0.14;100.00;101226.06;5020192;28;19932;-71
2024/01/08 02:15:51;;;;;;;3.83;2.35;;;;;;;-0.14;100.00;101226.94;5041564;28;20054;-71
2024/01/08 02:18:24;;;;;;;4.97;2.47;;;;;;;-0.21;100.00;101222.56;5032554;28;20528;-71
2024/01/08 02:20:55;;;;;;;3.50;2.17;;;;;;;-0.13;100.00;101227.81;5041583;28;20402;-70
2024/01/08 02:23:24;;;;;;;3.72;2.00;;;;;;;-0.19;97.17;101213.03;5023666;28;20103;-70
2024/01/08 02:25:53;;;;;;;1.80;1.70;;;;;;;-0.18;92.07;101225.19;5021726;28;20038;-71
2024/01/08 02:28:21;;;;;;;2.53;1.25;;;;;;;-0.22;91.97;101215.59;5034164;28;20067;-71
2024/01/08 02:30:49;;;;;;;2.17;1.45;;;;;;;-0.37;93.21;101200.72;5036775;28;20172;-72
2024/01/08 02:33:18;;;;;;;3.40;1.90;;;;;;;-0.28;94.36;101218.13;5022105;28;20045;-71
2024/01/08 02:35:46;;;;;;;2.38;1.77;;;;;;;-0.25;91.45;101223.38;5003780;28;20046;-70
2024/01/08 02:38:18;;;;;;;2.13;1.50;;;;;;;-0.27;92.64;101232.00;5031210;28;20936;-71
2024/01/08 02:40:48;;;;;;;2.25;1.70;;;;;;;-0.33;91.27;101208.56;5036978;28;20049;-70
2024/01/08 02:43:16;;;;;;;2.35;1.60;;;;;;;-0.30;91.74;101224.16;5024831;28;20140;-71
2024/01/08 02:45:44;;;;;;;3.70;1.80;;;;;;;-0.26;91.73;101223.34;5021944;28;20057;-71
2024/01/08 02:48:13;;;;;;;3.25;1.67;;;;;;;-0.26;92.05;101236.38;5013230;28;20045;-71
2024/01/08 02:50:42;;;;;;;2.53;1.77;;;;;;;-0.28;90.53;101227.66;5025296;28;21531;-71
2024/01/08 02:53:12;;;;;;;2.13;1.70;;;;;;;-0.39;89.67;101214.56;5023280;28;20041;-73
2024/01/08 02:55:41;;;;;;;2.67;1.60;;;;;;;-0.32;88.71;101216.38;5024204;28;20052;-71
2024/01/08 02:58:10;;;;;;;1.48;1.27;;;;;;;-0.33;88.95;101225.03;5016998;28;20061;-72
2024/01/08 03:00:38;;;;;;;1.77;1.50;;;;;;;-0.30;88.95;101229.38;5023389;28;20589;-72
2024/01/08 03:03:06;;;;;;;3.28;1.70;;;;;;;-0.37;88.44;101216.31;5039518;28;20073;-74
2024/01/08 03:05:35;;;;;;;2.70;1.80;;;;;;;-0.34;88.67;101230.22;5037588;28;20048;-72
2024/01/08 03:08:04;;;;;;;1.92;1.58;;;;;;;-0.43;88.85;101226.66;5020203;28;20136;-72
2024/01/08 03:10:32;;;;;;;2.88;2.00;;;;;;;-0.43;87.75;101218.84;5026312;28;20073;-72
2024/01/08 03:13:00;;;;;;;2.35;1.75;;;;;;;-0.38;87.37;101231.91;5041515;28;20045;-72
2024/01/08 03:15:32;;;;;;;2.67;1.90;;;;;;;-0.37;86.01;101236.25;5019200;28;20785;-72
2024/01/08 03:18:00;;;;;;;2.33;1.73;;;;;;;-0.48;85.49;101225.75;5030541;28;20095;-72
2024/01/08 03:20:29;;;;;;;2.20;1.60;;;;;;;-0.47;83.49;101222.25;5032518;28;20046;-73
2024/01/08 03:22:58;;;;;;;2.38;1.50;;;;;;;-0.36;78.54;101241.50;5025341;28;20051;-72
2024/01/08 03:25:26;;;;;;;2.15;1.50;;;;;;;-0.36;77.55;101238.88;4990840;28;20049;-71
2024/01/08 03:27:55;;;;;;;3.00;1.80;;;;;;;-0.35;75.48;101231.94;5030075;28;20046;-72
2024/01/08 03:30:24;;;;;;;2.97;1.92;;;;;;;-0.36;76.55;101217.19;5020584;28;20048;-71
2024/01/08 03:32:54;;;;;;;3.55;1.80;;;;;;;-0.31;77.62;101230.22;5037414;28;20092;-72
2024/01/08 03:35:22;;;;;;;2.57;1.63;;;;;;;-0.42;79.53;101220.59;5028586;28;20042;-72
2024/01/08 03:37:51;;;;;;;2.80;1.90;;;;;;;-0.36;81.06;101238.88;5018278;28;20594;-71
2024/01/08 03:40:22;;;;;;;1.98;1.58;;;;;;;-0.33;82.56;101231.97;5017694;28;20062;-72
2024/01/08 03:42:50;;;;;;;2.42;1.90;;;;;;;-0.38;84.16;101240.59;5004476;28;20041;-71
2024/01/08 03:45:19;;;;;;;3.17;1.83;;;;;;;-0.37;84.24;101241.47;5029323;28;20076;-71
2024/01/08 03:47:47;;;;;;;3.40;1.98;;;;;;;-0.39;84.16;101231.03;5015489;28;20049;-71
2024/01/08 03:50:17;;;;;;;3.38;2.30;;;;;;;-0.42;85.07;101232.72;5014507;28;20121;-72
2024/01/08 03:52:46;;;;;;;2.50;2.05;;;;;;;-0.33;84.71;101234.56;5021021;28;20045;-72
2024/01/08 03:55:16;;;;;;;2.70;1.90;;;;;;;-0.40;85.50;101231.91;5035782;28;20050;-72
2024/01/08 03:57:48;;;;;;;2.70;2.03;;;;;;;-0.34;86.29;101238.03;5018084;28;20111;-71
2024/01/08 04:00:17;;;;;;;2.80;1.98;;;;;;;-0.39;85.79;101227.56;5031949;28;20049;-73
2024/01/08 04:02:47;;;;;;;2.08;1.60;;;;;;;-0.33;84.00;101234.56;5020632;28;20133;-72
2024/01/08 04:05:17;;;;;;;2.20;1.67;;;;;;;-0.57;82.47;101194.41;5017156;28;20239;-71
2024/01/08 04:07:46;;;;;;;2.88;1.88;;;;;;;-0.38;80.73;101238.00;5022650;28;20422;-70
2024/01/08 04:10:15;;;;;;;2.22;1.63;;;;;;;-0.32;80.06;101239.81;5032353;28;20053;-70
2024/01/08 04:12:45;;;;;;;2.88;1.80;;;;;;;-0.38;79.95;101239.72;4999608;28;20043;-70
2024/01/08 04:15:14;;;;;;;3.13;1.95;;;;;;;-0.41;80.39;101230.16;5034183;28;20055;-71
2024/01/08 04:17:44;;;;;;;4.22;1.80;;;;;;;-0.33;80.07;101243.25;5017251;28;20059;-70
2024/01/08 04:20:13;;;;;;;4.00;1.90;;;;;;;-0.34;79.09;101253.66;5013017;28;20063;-71
2024/01/08 04:22:46;;;;;;;2.15;1.65;;;;;;;-0.34;77.92;101240.63;5036641;28;20054;-72
2024/01/08 04:25:14;;;;;;;2.70;1.85;;;;;;;-0.40;79.25;101247.50;5022127;28;20771;-71
2024/01/08 04:27:46;;;;;;;4.70;2.10;;;;;;;-0.37;78.73;101239.75;5022369;28;20549;-71
2024/01/08 04:30:18;;;;;;;2.22;1.70;;;;;;;-0.40;79.61;101239.69;5021452;28;20041;-71
2024/01/08 04:32:46;;;;;;;2.25;1.70;;;;;;;-0.42;79.87;101236.19;5013707;28;20577;-71
2024/01/08 04:35:17;;;;;;;1.73;1.63;;;;;;;-0.48;81.82;101251.75;5026180;28;20084;-73
2024/01/08 04:37:49;;;;;;;3.13;2.03;;;;;;;-0.44;81.99;101263.94;5020810;28;20053;-70
2024/01/08 04:40:18;;;;;;;2.40;1.85;;;;;;;-0.55;81.98;101236.06;5015801;28;20037;-73
2024/01/08 04:42:48;;;;;;;2.15;1.70;;;;;;;-0.42;81.87;101250.94;5020122;28;20045;-73
2024/01/08 04:45:18;;;;;;;2.85;1.88;;;;;;;-0.44;80.88;101256.13;5024221;28;20065;-71
2024/01/08 04:47:47;;;;;;;2.15;1.83;;;;;;;-0.41;79.15;101257.91;5017494;28;20056;-70
2024/01/08 04:50:15;;;;;;;2.25;1.83;;;;;;;-0.45;79.32;101249.19;5016874;28;20057;-73
2024/01/08 04:52:47;;;;;;;2.83;2.22;;;;;;;-0.49;77.33;101251.75;5020527;28;20111;-71
2024/01/08 04:55:16;;;;;;;3.33;1.90;;;;;;;-0.43;77.57;101252.66;5016565;28;20045;-70
2024/01/08 04:57:44;;;;;;;2.13;1.80;;;;;;;-0.49;78.35;101242.22;5037330;28;20518;-71
2024/01/08 05:00:13;;;;;;;3.58;2.45;;;;;;;-0.40;78.02;101251.84;5029595;28;20132;-71
2024/01/08 05:02:41;;;;;;;3.05;1.85;;;;;;;-0.45;79.02;101253.50;5019379;28;20053;-71
2024/01/08 05:05:12;;;;;;;2.88;1.88;;;;;;;-0.42;78.16;101256.16;5020258;28;20057;-70
2024/01/08 05:07:40;;;;;;;3.17;1.77;;;;;;;-0.41;78.55;101257.91;5030112;28;20050;-70
2024/01/08 05:10:11;;;;;;;2.13;1.80;;;;;;;-0.45;78.04;101264.78;5039604;28;20219;-71
2024/01/08 05:12:40;;;;;;;4.70;2.40;;;;;;;-0.50;78.63;101250.00;5035771;28;20107;-69
2024/01/08 05:15:09;;;;;;;2.70;1.83;;;;;;;-0.46;79.68;101256.97;5031633;28;20545;-71
2024/01/08 05:17:38;;;;;;;2.60;2.40;;;;;;;-0.46;80.44;101259.56;5018835;28;20067;-72
2024/01/08 05:20:09;;;;;;;4.10;1.90;;;;;;;-0.47;80.33;101258.69;5034604;28;20049;-72
2024/01/08 05:22:38;;;;;;;3.22;2.00;;;;;;;-0.45;82.37;101266.50;5036688;28;20054;-72
2024/01/08 05:25:06;;;;;;;2.22;1.88;;;;;;;-0.46;83.40;101257.84;5032788;28;20056;-72
2024/01/08 05:27:36;;;;;;;3.95;2.60;;;;;;;-0.38;86.88;101264.00;4998848;28;20053;-72
2024/01/08 05:30:06;;;;;;;3.70;2.80;;;;;;;-0.34;93.91;101270.13;5016191;28;20069;-72
2024/01/08 05:32:36;;;;;;;4.35;2.88;;;;;;;-0.36;96.80;101272.72;5019790;28;20064;-72
2024/01/08 05:35:06;;;;;;;4.30;3.27;;;;;;;-0.37;99.68;101270.09;5023119;28;20057;-73
2024/01/08 05:37:34;;;;;;;4.10;3.10;;;;;;;-0.43;100.00;101273.47;5020606;28;20164;-72
2024/01/08 05:40:04;;;;;;;5.38;3.38;;;;;;;-0.49;100.00;101259.56;5017657;28;20657;-71
2024/01/08 05:42:39;;;;;;;5.32;3.53;;;;;;;-0.48;100.00;101267.38;5023869;28;20102;-70
2024/01/08 05:45:08;;;;;;;4.40;2.88;;;;;;;-0.43;96.98;101267.41;5038282;28;20180;-71
2024/01/08 05:47:37;;;;;;;3.22;2.42;;;;;;;-0.40;93.76;101267.44;5022394;28;20049;-71
2024/01/08 05:50:07;;;;;;;3.00;2.25;;;;;;;-0.36;90.52;101272.72;5003918;28;20048;-72
2024/01/08 05:52:36;;;;;;;2.70;2.13;;;;;;;-0.42;90.39;101272.63;5023691;28;20046;-72
2024/01/08 05:55:05;;;;;;;3.92;2.38;;;;;;;-0.47;91.09;101263.00;5007560;28;20046;-72
2024/01/08 05:57:35;;;;;;;3.60;2.60;;;;;;;-0.40;90.86;101276.13;5036864;28;20118;-73
2024/01/08 06:00:04;;;;;;;4.55;2.80;;;;;;;-0.42;91.05;101277.84;5014270;28;20061;-72
2024/01/08 06:02:32;;;;;;;2.80;2.40;;;;;;;-0.38;91.43;101279.63;5023657;28;20533;-72
2024/01/08 06:05:01;;;;;;;3.95;2.47;;;;;;;-0.51;91.15;101267.34;5022499;28;20136;-72
2024/01/08 06:07:30;;;;;;;5.13;2.58;;;;;;;-0.45;90.76;101272.59;5030955;28;20655;-73
2024/01/08 06:09:58;;;;;;;3.85;2.40;;;;;;;-0.48;91.21;101279.50;5014060;28;20064;-71
2024/01/08 06:12:29;;;;;;;4.65;2.63;;;;;;;-0.43;91.19;101281.28;5019662;28;20054;-71
2024/01/08 06:15:00;;;;;;;2.50;2.30;;;;;;;-0.48;92.38;101283.00;5022419;28;20045;-71
2024/01/08 06:17:29;;;;;;;3.22;2.78;;;;;;;-0.49;94.04;101276.03;5022921;28;20462;-71
2024/01/08 06:19:58;;;;;;;3.75;2.70;;;;;;;-0.47;94.59;101283.81;5015634;28;20042;-70
2024/01/08 06:22:26;;;;;;;6.43;3.08;;;;;;;-0.44;93.22;101283.88;5037721;28;20052;-71
2024/01/08 06:24:57;;;;;;;3.92;2.67;;;;;;;-0.50;93.80;101276.88;5022464;28;20065;-72
2024/01/08 06:27:25;;;;;;;4.63;2.53;;;;;;;-0.50;94.01;101284.69;5020263;28;20046;-72
2024/01/08 06:29:54;;;;;;;6.30;3.25;;;;;;;-0.53;94.73;101284.66;5014758;28;20049;-71
2024/01/08 06:32:24;;;;;;;7.00;3.17;;;;;;;-0.59;96.41;101294.09;5036503;28;20053;-71
2024/01/08 06:34:53;;;;;;;5.22;3.08;;;;;;;-0.63;96.21;101295.78;5023386;28;20407;-72
2024/01/08 06:37:22;;;;;;;5.47;3.10;;;;;;;-0.62;95.37;101291.44;5016693;28;20126;-71
2024/01/08 06:39:51;;;;;;;3.58;2.55;;;;;;;-0.61;93.78;101291.47;5028457;28;20402;-73
2024/01/08 06:42:19;;;;;;;3.78;2.60;;;;;;;-0.58;92.69;101301.03;5025544;28;20129;-72
2024/01/08 06:44:47;;;;;;;3.28;2.63;;;;;;;-0.65;92.14;101305.31;5018735;28;20199;-72
2024/01/08 06:47:16;;;;;;;5.35;3.00;;;;;;;-0.71;88.94;101306.09;5019136;28;20072;-71
2024/01/08 06:49:46;;;;;;;6.78;3.00;;;;;;;-0.73;88.30;101307.78;5016299;28;20079;-71
2024/01/08 06:52:16;;;;;;;4.03;2.78;;;;;;;-0.72;88.02;101304.34;5016806;28;20112;-71
2024/01/08 06:54:44;;;;;;;3.60;2.63;;;;;;;-0.72;86.68;101308.66;5021599;28;20053;-72
2024/01/08 06:57:12;;;;;;;4.35;2.90;;;;;;;-0.73;85.85;101322.53;5027163;28;20056;-72
2024/01/08 06:59:41;;;;;;;3.38;2.60;;;;;;;-0.83;86.01;101297.25;5015638;28;20053;-71
2024/01/08 07:02:14;;;;;;;4.82;2.97;;;;;;;-0.80;85.49;101316.38;5025393;28;20045;-71
2024/01/08 07:04:46;;;;;;;5.60;3.00;;;;;;;-0.82;85.34;101319.81;5023564;28;20497;-72
2024/01/08 07:07:15;;;;;;;3.90;2.78;;;;;;;-0.79;85.13;101327.66;5020477;28;20058;-71
2024/01/08 07:09:44;;;;;;;3.88;2.95;;;;;;;-0.90;85.98;101318.81;5016054;28;20076;-72
2024/01/08 07:12:12;;;;;;;5.55;3.35;;;;;;;-0.86;86.00;101325.81;5020196;28;20048;-72
2024/01/08 07:14:45;;;;;;;7.13;2.90;;;;;;;-0.97;83.04;101301.41;5004114;28;20061;-73
2024/01/08 07:17:17;;;;;;;3.90;2.70;;;;;;;-0.92;81.01;101305.78;5033385;28;20060;-75
2024/01/08 07:19:47;;;;;;;4.38;3.00;;;;;;;-0.84;79.37;101325.00;5015933;28;20073;-72
2024/01/08 07:22:20;;;;;;;5.22;2.67;;;;;;;-0.89;77.64;101312.75;5034485;28;20052;-72
2024/01/08 07:24:49;;;;;;;6.13;2.58;;;;;;;-0.85;76.10;101327.56;5007300;28;20072;-72
2024/01/08 07:27:18;;;;;;;4.10;2.30;;;;;;;-0.88;74.55;101324.91;5037902;28;20037;-72
2024/01/08 07:29:49;;;;;;;4.28;2.60;;;;;;;-0.91;74.00;101332.66;5029081;28;22794;-74
2024/01/08 07:32:19;;;;;;;4.97;2.58;;;;;;;-0.96;72.97;101349.94;5019571;28;20060;-71
2024/01/08 07:34:49;;;;;;;3.90;2.60;;;;;;;-1.01;74.08;101343.78;5019117;28;20950;-73
2024/01/08 07:37:18;;;;;;;4.20;2.30;;;;;;;-1.04;74.53;101346.34;5004492;28;20128;-73
2024/01/08 07:39:46;;;;;;;4.65;3.10;;;;;;;-1.04;75.84;101347.22;5030368;28;20053;-71
2024/01/08 07:42:16;;;;;;;5.20;3.13;;;;;;;-1.04;74.71;101351.53;5022355;28;20113;-71
2024/01/08 07:44:45;;;;;;;4.75;2.95;;;;;;;-1.08;75.26;101353.22;5019216;28;20621;-73
2024/01/08 07:47:17;;;;;;;7.00;3.17;;;;;;;-1.15;77.14;101353.97;5018221;28;20061;-73
2024/01/08 07:49:47;;;;;;;5.68;3.10;;;;;;;-1.20;76.46;101368.63;5033581;28;20054;-71
2024/01/08 07:52:17;;;;;;;4.85;3.35;;;;;;;-1.40;75.14;101329.31;5013703;28;20038;-70
2024/01/08 07:54:50;;;;;;;6.30;3.55;;;;;;;-1.27;74.38;101359.00;5017970;28;20045;-71
2024/01/08 07:57:22;;;;;;;5.53;3.20;;;;;;;-1.34;74.33;101357.13;5040665;28;20152;-73
2024/01/08 07:59:52;;;;;;;5.78;3.35;;;;;;;-1.34;73.80;101370.13;5019091;28;20049;-72
2024/01/08 08:02:20;;;;;;;7.40;3.50;;;;;;;-1.35;74.32;101379.63;5018823;28;20045;-72
2024/01/08 08:04:51;;;;;;;6.60;3.58;;;;;;;-1.35;74.49;101376.16;5021057;28;20046;-73
2024/01/08 08:07:22;;;;;;;5.95;3.55;;;;;;;-1.43;74.22;101371.72;5023439;28;20054;-73
2024/01/08 08:09:50;;;;;;;4.95;3.33;;;;;;;-1.41;75.84;101372.59;5038858;28;20060;-74
2024/01/08 08:12:22;;;;;;;5.93;3.40;;;;;;;-1.50;75.30;101358.59;5033789;28;20180;-72
2024/01/08 08:14:59;;;;;;;6.07;3.83;;;;;;;-1.32;75.14;101384.00;5024892;28;20041;-71
2024/01/08 08:17:34;;;;;;;5.75;3.47;;;;;;;-1.30;74.67;101391.00;5039862;28;20061;-72
2024/01/08 08:20:09;;;;;;;5.45;3.08;;;;;;;-1.32;73.47;101371.91;5029333;28;20056;-74
2024/01/08 08:22:41;;;;;;;7.80;3.78;;;;;;;-1.32;73.04;101390.09;5034940;28;20053;-73
2024/01/08 08:25:11;;;;;;;6.05;4.00;;;;;;;-1.29;73.19;101389.25;5019325;28;20057;-75
2024/01/08 08:27:40;;;;;;;6.35;3.95;;;;;;;-1.34;72.68;101381.38;5038786;28;20042;-72
2024/01/08 08:30:12;;;;;;;6.03;3.80;;;;;;;-1.26;70.85;101389.31;5018385;28;20049;-71
2024/01/08 08:32:40;;;;;;;6.65;3.53;;;;;;;-1.38;71.11;101381.28;5019325;28;20131;-72
2024/01/08 08:35:12;;;;;;;6.45;4.00;;;;;;;-1.30;70.98;101387.50;5035248;28;20462;-72
2024/01/08 08:37:42;;;;;;;5.63;3.45;;;;;;;-1.30;70.93;101383.19;5018274;28;20149;-71
2024/01/08 08:40:21;;;;;;;7.28;3.42;;;;;;;-1.26;71.23;101391.91;4999026;28;20042;-71
2024/01/08 08:42:50;;;;;;;7.00;4.18;;;;;;;-1.34;70.97;101368.38;5021330;28;20045;-73
2024/01/08 08:45:18;;;;;;;5.60;3.70;;;;;;;-1.18;71.03;101400.72;5030976;28;20029;-73
2024/01/08 08:47:50;;;;;;;6.80;3.72;;;;;;;-1.21;70.39;101388.53;5001916;28;20129;-72
2024/01/08 08:50:19;;;;;;;6.80;4.10;;;;;;;-1.17;71.02;101392.94;5013303;28;20049;-72
2024/01/08 08:52:51;;;;;;;8.05;3.95;;;;;;;-1.12;71.78;101401.69;5020604;28;20088;-72
2024/01/08 08:55:19;;;;;;;6.90;3.97;;;;;;;-1.07;71.52;101410.41;5037318;28;20080;-72
2024/01/08 08:57:48;;;;;;;6.45;3.97;;;;;;;-1.13;70.72;101384.34;5019180;28;20528;-70
2024/01/08 09:00:18;;;;;;;5.30;3.60;;;;;;;-1.07;71.29;101392.22;5026538;28;20080;-71
2024/01/08 09:02:54;;;;;;;8.75;3.92;;;;;;;-0.86;69.76;101409.91;5016553;28;20065;-72
2024/01/08 09:05:26;;;;;;;5.97;4.00;;;;;;;-0.75;69.90;101413.53;5025333;28;20060;-73
2024/01/08 09:08:07;;;;;;;7.03;4.00;;;;;;;-0.72;69.09;101408.38;5020175;28;20041;-72
2024/01/08 09:10:36;;;;;;;7.22;4.35;;;;;;;-0.62;68.07;101419.78;5030430;28;20049;-72
2024/01/08 09:13:04;;;;;;;8.30;4.55;;;;;;;-0.59;67.51;101419.84;5019169;28;20044;-73
2024/01/08 09:15:34;;;;;;;6.13;3.97;;;;;;;-0.63;67.21;101428.44;5035465;28;20506;-70
2024/01/08 09:18:02;;;;;;;7.80;3.50;;;;;;;-0.66;66.04;101423.22;5018264;28;20050;-73
2024/01/08 09:20:31;;;;;;;4.95;3.60;;;;;;;-0.64;64.07;101421.50;4994728;28;20135;-72
2024/01/08 09:22:59;;;;;;;5.50;2.83;;;;;;;-0.63;64.39;101420.63;5018993;28;20037;-71
2024/01/08 09:25:31;;;;;;;4.95;3.17;;;;;;;-0.68;62.49;101419.72;5000863;28;20115;-73
2024/01/08 09:28:00;;;;;;;6.38;3.60;;;;;;;-0.70;62.32;101431.81;5004364;28;20056;-72
2024/01/08 09:30:30;;;;;;;5.20;3.60;;;;;;;-0.76;62.32;101427.38;4999210;28;20046;-72
2024/01/08 09:32:58;;;;;;;5.47;3.40;;;;;;;-0.83;62.58;101422.94;5020244;28;20520;-72
2024/01/08 09:35:29;;;;;;;6.57;3.70;;;;;;;-0.91;62.49;101401.13;5013886;28;20049;-72
2024/01/08 09:38:01;;;;;;;6.80;3.90;;;;;;;-0.81;62.68;101436.84;5021818;28;20092;-73
2024/01/08 09:40:31;;;;;;;8.00;4.20;;;;;;;-0.83;63.77;101440.28;5031030;28;20050;-72
2024/01/08 09:43:06;;;;;;;6.32;3.42;;;;;;;-0.84;63.47;101426.41;5031458;28;20060;-70
2024/01/08 09:45:39;;;;;;;5.90;3.80;;;;;;;-0.74;63.63;101446.50;5018970;28;20418;-71
2024/01/08 09:48:11;;;;;;;6.13;3.63;;;;;;;-0.82;62.62;101447.22;5007461;28;20053;-71
2024/01/08 09:50:40;;;;;;;7.43;3.78;;;;;;;-0.81;63.64;101452.47;5028221;28;20053;-73
2024/01/08 09:53:09;;;;;;;5.47;3.58;;;;;;;-0.91;62.87;101454.88;5033332;28;20095;-71
2024/01/08 09:55:43;;;;;;;6.28;3.55;;;;;;;-0.91;63.89;101444.47;5020545;28;20455;-71
2024/01/08 09:58:12;;;;;;;6.20;3.70;;;;;;;-0.88;63.65;101444.53;5021547;28;20130;-71
2024/01/08 10:00:42;;;;;;;4.75;3.28;;;;;;;-0.87;63.57;101444.56;5007879;28;20525;-70
2024/01/08 10:03:11;;;;;;;5.47;3.67;;;;;;;-0.88;62.70;101449.72;5018577;28;20136;-70
2024/01/08 10:05:40;;;;;;;6.38;3.33;;;;;;;-1.02;63.89;101440.81;5019144;28;20041;-71
2024/01/08 10:08:08;;;;;;;6.53;3.70;;;;;;;-1.03;64.72;101450.34;5036156;28;20120;-70
2024/01/08 10:10:36;;;;;;;5.43;3.55;;;;;;;-1.04;65.55;101458.13;5032288;28;20134;-71
2024/01/08 10:13:10;;;;;;;5.13;3.55;;;;;;;-1.18;63.75;101442.28;5013835;28;20042;-71
2024/01/08 10:15:38;;;;;;;5.88;3.83;;;;;;;-1.18;64.69;101444.88;5022352;28;20064;-72
2024/01/08 10:18:10;;;;;;;5.90;3.42;;;;;;;-1.18;65.06;101450.97;5023140;28;20573;-70
2024/01/08 10:20:38;;;;;;;6.63;3.60;;;;;;;-1.04;64.63;101438.19;5019466;28;20498;-71
2024/01/08 10:23:08;;;;;;;5.38;3.38;;;;;;;-1.06;63.98;101422.56;5036798;28;20168;-71
2024/01/08 10:25:39;;;;;;;5.90;3.47;;;;;;;-0.97;63.43;101429.66;5024124;28;20081;-71
2024/01/08 10:28:11;;;;;;;6.22;3.67;;;;;;;-0.91;62.58;101449.66;5045833;28;20053;-72
2024/01/08 10:30:43;;;;;;;6.10;3.42;;;;;;;-0.90;62.86;101436.69;5028998;28;20077;-73
2024/01/08 10:33:11;;;;;;;6.03;3.90;;;;;;;-0.89;62.75;101429.78;5034803;28;20088;-73
2024/01/08 10:35:42;;;;;;;6.93;3.40;;;;;;;-0.80;61.84;101440.34;5029678;28;20060;-73
2024/01/08 10:38:11;;;;;;;6.53;3.17;;;;;;;-0.74;60.71;101430.00;5025784;28;20065;-71
2024/01/08 10:40:43;;;;;;;6.65;3.38;;;;;;;-0.69;60.10;101438.78;5025595;28;20461;-72
2024/01/08 10:43:14;;;;;;;5.63;3.25;;;;;;;-0.64;58.14;101424.13;5010607;28;20055;-73
2024/01/08 10:45:44;;;;;;;5.85;3.42;;;;;;;-0.60;57.16;101433.69;5041409;28;20267;-72
2024/01/08 10:48:22;;;;;;;5.72;3.15;;;;;;;-0.68;56.52;101432.72;5040885;28;20052;-71
2024/01/08 10:50:54;;;;;;;6.65;3.33;;;;;;;-0.86;57.52;101429.81;5022440;28;20092;-74
2024/01/08 10:53:37;;;;;;;6.05;3.65;;;;;;;-1.00;58.29;101420.94;5040978;28;20092;-70
2024/01/08 10:56:10;;;;;;;7.97;3.95;;;;;;;-0.93;57.55;101436.63;5024547;28;20050;-72
2024/01/08 10:58:47;;;;;;;7.10;3.55;;;;;;;-0.94;57.77;101445.28;5044010;28;20133;-71
2024/01/08 11:01:16;;;;;;;7.10;3.45;;;;;;;-0.98;57.85;101430.50;5036764;28;20053;-74
2024/01/08 11:03:46;;;;;;;6.80;3.70;;;;;;;-0.98;57.59;101434.84;5038238;28;20141;-70
2024/01/08 11:06:16;;;;;;;5.67;3.60;;;;;;;-0.95;57.55;101429.69;5040244;28;20100;-71
2024/01/08 11:08:50;;;;;;;6.53;3.53;;;;;;;-0.90;56.56;101430.63;5038371;28;20499;-73
2024/01/08 11:11:21;;;;;;;12.18;4.15;;;;;;;-1.06;55.90;101424.28;5019288;28;20434;-70
2024/01/08 11:13:52;;;;;;;8.23;4.25;;;;;;;-1.03;56.18;101431.28;5022559;28;20148;-71
2024/01/08 11:16:28;;;;;;;7.80;3.78;;;;;;;-0.99;55.91;101443.47;5037386;28;20111;-71
2024/01/08 11:19:27;;;;;;;6.72;3.22;;;;;;;-0.95;55.18;101445.28;5023514;28;20042;-71
2024/01/08 11:22:13;;;;;;;6.53;3.70;;;;;;;-1.03;55.27;101444.28;5006609;28;20049;-72
2024/01/08 11:24:51;;;;;;;7.35;3.95;;;;;;;-1.07;55.29;101440.72;5024818;28;20057;-71
2024/01/08 11:27:23;;;;;;;7.43;4.03;;;;;;;-1.13;55.39;101441.53;5030513;28;20409;-71
2024/01/08 11:29:58;;;;;;;7.53;4.10;;;;;;;-1.12;55.78;101448.47;5021960;28;20132;-72
2024/01/08 11:33:03;;;;;;;6.57;3.95;;;;;;;-1.15;55.59;101443.22;5034337;28;20045;-71
2024/01/08 11:35:43;;;;;;;6.15;3.72;;;;;;;-1.11;54.81;101444.16;5001461;28;20445;-71
2024/01/08 11:38:28;;;;;;;8.00;3.72;;;;;;;-1.17;54.64;101444.03;5030641;28;20046;-73
2024/01/08 11:40:57;;;;;;;7.20;4.18;;;;;;;-1.29;54.80;101436.03;5049259;28;20072;-72